Mount Carmel, Iowa
Current Conditions -  °F | °C
As of 3:55 PM on Monday 20 Oct 2014 (Local Time) from KCIN Reporting Station
Clear Clear  
Wind Chill: 70°   Ceiling: Unl
Heat Index: 70°   Visibility: 10mi
Dew Point: 39°   Wind: 8mph
Humidity: 33%   Direction: 320°NW
Pressure: 30.02"   Gusts: 15mph
Location:  42.08°N, 94.8598°W
Report Text: KCIN 202055Z AUTO 32007G13KT 280V340 10SM CLR 21/04 A3002 RMK AO2
Loading
Personal Weather Stations






























Interactive Weather Map
Tropical Storm Tracking
New forecast layout! Learn more

10-Day Weather Forecast

Advertisements
Track Severe Weather on mobile